Map

Track Data

SID SEASON NUMBER BASIN SUBBASIN NAME ISO_TIME NATURE LAT LON WMO_WIND WMO_PRES WMO_AGENCY TRACK_TYPE DIST2LAND LANDFALL IFLAG USA_AGENCY USA_ATCF_ID USA_LAT USA_LON USA_RECORD USA_STATUS USA_WIND USA_PRES USA_SSHS USA_R34_NE USA_R34_SE USA_R34_SW USA_R34_NW USA_R50_NE USA_R50_SE USA_R50_SW USA_R50_NW USA_R64_NE USA_R64_SE USA_R64_SW USA_R64_NW USA_POCI USA_ROCI USA_RMW USA_EYE TOKYO_LAT TOKYO_LON TOKYO_GRADE TOKYO_WIND TOKYO_PRES TOKYO_R50_DIR TOKYO_R50_LONG TOKYO_R50_SHORT TOKYO_R30_DIR TOKYO_R30_LONG TOKYO_R30_SHORT TOKYO_LAND CMA_LAT CMA_LON CMA_CAT CMA_WIND CMA_PRES HKO_LAT HKO_LON HKO_CAT HKO_WIND HKO_PRES NEWDELHI_LAT NEWDELHI_LON NEWDELHI_GRADE NEWDELHI_WIND NEWDELHI_PRES NEWDELHI_CI NEWDELHI_DP NEWDELHI_POCI REUNION_LAT REUNION_LON REUNION_TYPE REUNION_WIND REUNION_PRES REUNION_TNUM REUNION_CI REUNION_RMW REUNION_R34_NE REUNION_R34_SE REUNION_R34_SW REUNION_R34_NW REUNION_R50_NE REUNION_R50_SE REUNION_R50_SW REUNION_R50_NW REUNION_R64_NE REUNION_R64_SE REUNION_R64_SW REUNION_R64_NW BOM_LAT BOM_LON BOM_TYPE BOM_WIND BOM_PRES BOM_TNUM BOM_CI BOM_RMW BOM_R34_NE BOM_R34_SE BOM_R34_SW BOM_R34_NW BOM_R50_NE BOM_R50_SE BOM_R50_SW BOM_R50_NW BOM_R64_NE BOM_R64_SE BOM_R64_SW BOM_R64_NW BOM_ROCI BOM_POCI BOM_EYE BOM_POS_METHOD BOM_PRES_METHOD NADI_LAT NADI_LON NADI_CAT NADI_WIND NADI_PRES WELLINGTON_LAT WELLINGTON_LON WELLINGTON_WIND WELLINGTON_PRES DS824_LAT DS824_LON DS824_STAGE DS824_WIND DS824_PRES TD9636_LAT TD9636_LON TD9636_STAGE TD9636_WIND TD9636_PRES TD9635_LAT TD9635_LON TD9635_WIND TD9635_PRES TD9635_ROCI NEUMANN_LAT NEUMANN_LON NEUMANN_CLASS NEUMANN_WIND NEUMANN_PRES MLC_LAT MLC_LON MLC_CLASS MLC_WIND MLC_PRES USA_GUST BOM_GUST BOM_GUST_PER REUNION_GUST REUNION_GUST_PER USA_SEAHGT USA_SEARAD_NE USA_SEARAD_SE USA_SEARAD_SW USA_SEARAD_NW STORM_SPEED STORM_DIR
1990056S11125 1990 12 SI WA VINCENT 1990-02-24 18:00:00 TS -10.8000 125.200 main 109 109 ____________O_ -1 -10.8000 125.200 TC 15 1 217
1990056S11125 1990 12 SI WA VINCENT 1990-02-24 21:00:00 TS -10.8550 125.168 main 117 111 ____________P_ -1 -10.8550 125.168 TC 15 1 224
1990056S11125 1990 12 SI WA VINCENT 1990-02-25 00:00:00 TS -10.8750 125.125 main 111 104 O___________O_ jtwc_sh SH171990 -10.8000 125.200 15 -1 -10.9000 125.100 TC 15 2 250
1990056S11125 1990 12 SI WA VINCENT 1990-02-25 03:00:00 TS -10.9200 124.982 main 104 99 P___________P_ SH171990 -10.8900 125.000 15 -1 -10.9350 124.972 TC 15 3 249
1990056S11125 1990 12 SI WA VINCENT 1990-02-25 06:00:00 TS -11.0000 124.800 main 106 103 O___________O_ jtwc_sh SH171990 -11.0000 124.800 15 -1 -11.0000 124.800 TC 15 4 240
1990056S11125 1990 12 SI WA VINCENT 1990-02-25 09:00:00 TS -11.1387 124.604 main 111 111 P___________P_ SH171990 -11.1425 124.600 15 -1 -11.1350 124.608 TC 15 5 232
1990056S11125 1990 12 SI WA VINCENT 1990-02-25 12:00:00 TS -11.3000 124.400 main 120 114 O___________O_ jtwc_sh SH171990 -11.3000 124.400 15 -1 -11.3000 124.400 TC 15 5 232
1990056S11125 1990 12 SI WA VINCENT 1990-02-25 15:00:00 TS -11.4500 124.200 main 120 120 P___________P_ SH171990 -11.4500 124.200 15 -1 -11.4500 124.200 TC 15 5 232
1990056S11125 1990 12 SI WA VINCENT 1990-02-25 18:00:00 TS -11.6000 124.000 main 136 134 O___________O_ jtwc_sh SH171990 -11.6000 124.000 15 -1 -11.6000 124.000 TC 15 5 232
1990056S11125 1990 12 SI WA VINCENT 1990-02-25 21:00:00 TS -11.7500 123.800 main 145 145 P___________P_ SH171990 -11.7500 123.800 15 -1 -11.7500 123.800 TC 15 5 232
1990056S11125 1990 12 SI WA VINCENT 1990-02-26 00:00:00 TS -11.9000 123.600 main 167 167 O___________O_ jtwc_sh SH171990 -11.9000 123.600 15 -1 -11.9000 123.600 TC 15 5 232
1990056S11125 1990 12 SI WA VINCENT 1990-02-26 03:00:00 TS -12.0500 123.400 main 179 179 P___________P_ SH171990 -12.0500 123.400 15 -1 -12.0500 123.400 TC 15 5 232
1990056S11125 1990 12 SI WA VINCENT 1990-02-26 06:00:00 TS -12.2000 123.200 main 204 204 O___________O_ jtwc_sh SH171990 -12.2000 123.200 15 -1 -12.2000 123.200 TC 15 5 232
1990056S11125 1990 12 SI WA VINCENT 1990-02-26 09:00:00 TS -12.3500 123.000 main 219 219 P___________P_ SH171990 -12.3500 123.000 15 -1 -12.3500 123.000 TC 15 5 232
1990056S11125 1990 12 SI WA VINCENT 1990-02-26 12:00:00 TS -12.5000 122.800 main 247 247 O___________O_ jtwc_sh SH171990 -12.5000 122.800 15 -1 -12.5000 122.800 TC 15 5 233
1990056S11125 1990 12 SI WA VINCENT 1990-02-26 15:00:00 TS -12.6425 122.600 main 265 265 P___________P_ SH171990 -12.6425 122.600 17 -1 -12.6425 122.600 TC 17 5 232
1990056S11125 1990 12 SI WA VINCENT 1990-02-26 18:00:00 TS -12.8000 122.400 main 294 294 O___________O_ jtwc_sh SH171990 -12.8000 122.400 20 -1 -12.8000 122.400 TC 20 5 229
1990056S11125 1990 12 SI WA VINCENT 1990-02-26 21:00:00 TS -12.9925 122.193 main 323 323 P___________P_ SH171990 -12.9925 122.193 20 -1 -12.9925 122.193 TC 20 6 224
1990056S11125 1990 12 SI WA VINCENT 1990-02-27 00:00:00 TS -13.2000 122.000 main 353 353 O___________O_ jtwc_sh SH171990 -13.2000 122.000 20 -1 -13.2000 122.000 TC 20 3 233
1990056S11125 1990 12 SI WA VINCENT 1990-02-27 03:00:00 TS -13.1898 121.923 main 358 356 P___________P_ SH171990 -13.1898 121.923 20 -1 -13.1898 121.923 TC 20 5 216
1990056S11125 1990 12 SI WA VINCENT 1990-02-27 06:00:00 TS -13.6000 121.700 main 349 255 O___________O_ jtwc_sh SH171990 -13.6000 121.700 20 -1 -13.6000 121.700 TC 20 23 204
1990056S11125 1990 12 SI WA VINCENT 1990-02-27 09:00:00 TS -15.2311 120.982 main 247 202 P___________P_ SH171990 -15.2311 120.982 20 -1 -15.2311 120.982 TC 20 35 203
1990056S11125 1990 12 SI WA VINCENT 1990-02-27 12:00:00 TS -16.8000 120.300 main 209 206 O___________O_ jtwc_sh SH171990 -16.8000 120.300 20 -1 -16.8000 120.300 TC 20 20 202
1990056S11125 1990 12 SI WA VINCENT 1990-02-27 15:00:00 TS -17.0394 120.201 main 212 206 P___________P_ SH171990 -17.0394 120.201 20 -1 -17.0394 120.201 TC 20 0 0
1990056S11125 1990 12 SI WA VINCENT 1990-02-27 18:00:00 TS -16.8000 120.300 main 209 209 O___________O_ jtwc_sh SH171990 -16.8000 120.300 20 -1 -16.8000 120.300 TC 20 3 13
1990056S11125 1990 12 SI WA VINCENT 1990-02-27 21:00:00 TS -16.7925 120.257 main 209 209 P___________P_ SH171990 -16.7925 120.257 22 -1 -16.7925 120.257 TC 22 1 270
1990056S11125 1990 12 SI WA VINCENT 1990-02-28 00:00:00 TS -16.8000 120.200 main 219 219 O___________O_ jtwc_sh SH171990 -16.8000 120.200 25 -1 -16.8000 120.200 TC 25 1 241
1990056S11125 1990 12 SI WA VINCENT 1990-02-28 03:00:00 TS -16.8500 120.150 main 219 219 P___________P_ SH171990 -16.8500 120.150 25 -1 -16.8500 120.150 TC 25 1 223
1990056S11125 1990 12 SI WA VINCENT 1990-02-28 06:00:00 TS -16.9000 120.100 main 226 226 O___________O_ jtwc_sh SH171990 -16.9000 120.100 25 -1 -16.9000 120.100 TC 25 1 241
1990056S11125 1990 12 SI WA VINCENT 1990-02-28 09:00:00 TS -16.8925 120.065 main 226 226 P___________P_ SH171990 -16.8925 120.065 27 -1 -16.8925 120.065 TC 27 1 270
1990056S11125 1990 12 SI WA VINCENT 1990-02-28 12:00:00 TS -16.9000 120.000 main 236 236 O___________O_ jtwc_sh SH171990 -16.9000 120.000 30 -1 -16.9000 120.000 TC 30 2 243
1990056S11125 1990 12 SI WA VINCENT 1990-02-28 15:00:00 TS -17.0000 119.843 main 253 250 P___________P_ SH171990 -17.0000 119.843 30 -1 -17.0000 119.843 TC 30 4 235
1990056S11125 1990 12 SI WA VINCENT 1990-02-28 18:00:00 TS -17.1000 119.700 main 260 260 O___________O_ jtwc_sh SH171990 -17.1000 119.700 30 -1 -17.1000 119.700 TC 30 1 232
1990056S11125 1990 12 SI WA VINCENT 1990-02-28 21:00:00 TS -17.0774 119.737 main 260 260 P___________P_ SH171990 -17.0774 119.737 30 -1 -17.0774 119.737 TC 30 0 0
1990056S11125 1990 12 SI WA VINCENT 1990-03-01 00:00:00 TS -17.1000 119.700 main 260 260 O___________O_ jtwc_sh SH171990 -17.1000 119.700 30 -1 -17.1000 119.700 TC 30 4 234
1990056S11125 1990 12 SI WA VINCENT 1990-03-01 03:00:00 TS -17.3200 119.383 main 283 279 P___________P_ SH171990 -17.3200 119.383 30 -1 -17.3200 119.383 TC 30 9 237
1990056S11125 1990 12 SI WA VINCENT 1990-03-01 06:00:00 TS -17.6000 118.900 main 280 262 O___________O_ jtwc_sh SH171990 -17.6000 118.900 30 -1 -17.6000 118.900 TC 30 11 241
1990056S11125 1990 12 SI WA VINCENT 1990-03-01 09:00:00 TS -17.8372 118.403 main 267 257 P___________P_ SH171990 -17.8372 118.403 30 -1 -17.8372 118.403 TC 30 11 249
1990056S11125 1990 12 SI WA VINCENT 1990-03-01 12:00:00 TS -18.0000 117.800 main 270 270 O___________O_ jtwc_sh SH171990 -18.0000 117.800 30 -1 -18.0000 117.800 TC 30 13 260
1990056S11125 1990 12 SI WA VINCENT 1990-03-01 15:00:00 TS -18.0526 117.072 main 277 277 P___________P_ SH171990 -18.0526 117.072 30 -1 -18.0526 117.072 TC 30 14 270
1990056S11125 1990 12 SI WA VINCENT 1990-03-01 18:00:00 TS -18.0000 116.300 main 293 293 O___________O_ jtwc_sh SH171990 -18.0000 116.300 30 -1 -18.0000 116.300 TC 30 14 278
1990056S11125 1990 12 SI WA VINCENT 1990-03-01 21:00:00 TS -17.8574 115.570 main 323 323 P___________P_ SH171990 -17.8574 115.570 30 -1 -17.8574 115.570 TC 30 14 285
1990056S11125 1990 12 SI WA VINCENT 1990-03-02 00:00:00 TS -17.6222 114.867 30 997 bom main 385 385 O_____O_____O_ jtwc_sh SH171990 -17.7000 114.900 30 -1 -17.0000 114.600 20 30 997 2.50000 373 3 6 -17.7000 114.900 TC 30 12 285
1990056S11125 1990 12 SI WA VINCENT 1990-03-02 03:00:00 TS -17.5294 114.308 main 428 428 P_____P_____P_ SH171990 -17.6124 114.290 32 -1 -17.1974 114.380 20 32 996 316 -17.6124 114.290 TC 32 9 275
1990056S11125 1990 12 SI WA VINCENT 1990-03-02 06:00:00 TS -17.5455 113.882 35 995 bom main 450 446 O_____O_____O_ jtwc_sh SH171990 -17.6000 113.800 35 0 -17.4000 114.100 21 35 995 3.00000 259 3 6 -17.6000 113.800 TC 35 7 261
1990056S11125 1990 12 SI WA VINCENT 1990-03-02 09:00:00 TS -17.6441 113.543 main 465 456 P_____P_____P_ SH171990 -17.6623 113.448 35 0 -17.6076 113.735 21 37 994 250 -17.6623 113.448 TC 35 6 247
1990056S11125 1990 12 SI WA VINCENT 1990-03-02 12:00:00 TS -17.8000 113.267 40 993 bom main 458 446 O_____O_____O_ jtwc_sh SH171990 -17.8000 113.200 35 0 -17.8000 113.400 21 40 993 3.00000 242 3 6 -17.8000 113.200 TC 35 6 235
1990056S11125 1990 12 SI WA VINCENT 1990-03-02 15:00:00 TS -17.9683 113.058 main 446 429 P_____P_____P_ SH171990 -17.9774 112.977 37 0 -17.9499 113.220 21 40 992 296 -17.9774 112.977 TC 37 5 224
1990056S11125 1990 12 SI WA VINCENT 1990-03-02 18:00:00 TS -18.1667 112.900 40 991 bom main 429 411 O_____O_____O_ jtwc_sh SH171990 -18.2000 112.800 40 0 -18.1000 113.100 21 40 991 3.00000 350 3 6 -18.2000 112.800 TC 40 5 214
1990056S11125 1990 12 SI WA VINCENT 1990-03-02 21:00:00 TS -18.3799 112.762 main 411 393 P_____P_____P_ SH171990 -18.4349 112.650 42 0 -18.2698 112.987 21 45 987 382 -18.4349 112.650 TC 42 5 211
1990056S11125 1990 12 SI WA VINCENT 1990-03-03 00:00:00 TS -18.6333 112.600 50 984 bom main 396 374 O_____O_____O_ jtwc_sh SH171990 -18.7000 112.500 45 0 -18.5000 112.800 21 50 984 3.50000 415 3 6 -18.7000 112.500 TC 45 7 215
1990056S11125 1990 12 SI WA VINCENT 1990-03-03 03:00:00 TS -18.9451 112.348 main 379 351 P_____P_____P_ SH171990 -18.9925 112.315 47 0 -18.8502 112.415 21 55 982 369 -18.9925 112.315 TC 47 8 219
1990056S11125 1990 12 SI WA VINCENT 1990-03-03 06:00:00 TS -19.2667 112.067 60 980 bom main 351 346 O_____O_____O_ jtwc_sh SH171990 -19.3000 112.100 50 0 -19.2000 112.000 21 60 980 4.00000 323 3 6 -19.3000 112.100 TC 50 8 221
1990056S11125 1990 12 SI WA VINCENT 1990-03-03 09:00:00 TS -19.5258 111.814 main 352 342 P_____P_____P_ SH171990 -19.5925 111.857 52 0 -19.3924 111.727 21 62 978 288 -19.5925 111.857 TC 52 7 222
1990056S11125 1990 12 SI WA VINCENT 1990-03-03 12:00:00 TS -19.8000 111.567 65 976 bom main 342 335 O_____O_____O_ jtwc_sh SH171990 -19.9000 111.600 55 0 -19.6000 111.500 40 65 976 4.50000 253 3 6 -19.9000 111.600 TC 55 8 217
1990056S11125 1990 12 SI WA VINCENT 1990-03-03 15:00:00 TS -20.1566 111.314 main 338 335 P_____P_____P_ SH171990 -20.2500 111.350 57 0 -19.9700 111.243 40 65 973 272 -20.2500 111.350 TC 57 9 213
1990056S11125 1990 12 SI WA VINCENT 1990-03-03 18:00:00 TS -20.5333 111.067 65 971 bom main 338 333 O_____O_____O_ jtwc_sh SH171990 -20.6000 111.100 60 0 -20.4000 111.000 40 65 971 4.50000 292 3 6 -20.6000 111.100 TC 60 8 213
1990056S11125 1990 12 SI WA VINCENT 1990-03-03 21:00:00 TS -20.8691 110.828 main 345 339 P_____P_____P_ SH171990 -20.9000 110.842 62 0 -20.8074 110.800 40 67 968 316 -20.9000 110.842 TC 62 8 213
1990056S11125 1990 12 SI WA VINCENT 1990-03-04 00:00:00 TS -21.2000 110.600 70 966 bom main 346 341 O_____O_____O_ jtwc_sh SH171990 -21.2000 110.600 65 1 -21.2000 110.600 40 70 966 4.50000 340 3 6 -21.2000 110.600 TC 65 8 212
1990056S11125 1990 12 SI WA VINCENT 1990-03-04 03:00:00 TS -21.5224 110.388 main 351 348 P_____P_____P_ SH171990 -21.5274 110.407 65 1 -21.5125 110.350 40 70 966 293 -21.5274 110.407 TC 65 8 210
1990056S11125 1990 12 SI WA VINCENT 1990-03-04 06:00:00 TS -21.9000 110.167 70 966 bom main 358 358 O_____O_____O_ jtwc_sh SH171990 -21.9000 110.200 65 1 -21.9000 110.100 40 70 966 4.50000 247 3 6 -21.9000 110.200 TC 65 10 207
1990056S11125 1990 12 SI WA VINCENT 1990-03-04 09:00:00 TS -22.3841 109.917 main 380 379 P_____P_____P_ SH171990 -22.3200 109.915 67 1 -22.5123 109.922 40 70 966 223 -22.3200 109.915 TC 67 12 205
1990056S11125 1990 12 SI WA VINCENT 1990-03-04 12:00:00 TS -22.9333 109.633 70 966 bom main 411 407 O_____O_____O_ jtwc_sh SH171990 -22.8000 109.600 70 1 -23.2000 109.700 40 70 966 4.50000 199 3 6 -22.8000 109.600 TC 70 13 208
1990056S11125 1990 12 SI WA VINCENT 1990-03-04 15:00:00 TS -23.4852 109.275 main 428 428 P_____P_____P_ SH171990 -23.3126 109.278 70 1 -23.8304 109.271 40 67 969 207 -23.3126 109.278 TC 70 13 208
1990056S11125 1990 12 SI WA VINCENT 1990-03-04 18:00:00 TS -24.0667 108.967 65 972 bom main 447 447 O_____O_____O_ jtwc_sh SH171990 -23.9000 109.000 70 1 -24.4000 108.900 40 65 972 4.50000 215 3 6 -23.9000 109.000 TC 70 12 200
1990056S11125 1990 12 SI WA VINCENT 1990-03-04 21:00:00 TS -24.6333 108.809 main 465 459 P_____P_____P_ SH171990 -24.5475 108.798 67 1 -24.8048 108.832 40 65 973 274 -24.5475 108.798 TC 67 13 188
1990056S11125 1990 12 SI WA VINCENT 1990-03-05 00:00:00 TS -25.3000 108.767 65 975 bom main 459 455 O_____O_____O_ jtwc_sh SH171990 -25.3000 108.700 65 1 -25.3000 108.900 40 65 975 4.50000 334 3 6 -25.3000 108.700 TC 65 15 183
1990056S11125 1990 12 SI WA VINCENT 1990-03-05 03:00:00 TS -26.1098 108.736 main 458 443 P_____P_____P_ SH171990 -26.1172 108.647 60 0 -26.0950 108.913 40 62 976 286 -26.1172 108.647 TC 60 18 177
1990056S11125 1990 12 SI WA VINCENT 1990-03-05 06:00:00 TS -27.1000 108.867 60 978 bom main 445 445 O_____O_____O_ jtwc_sh SH171990 -27.1000 108.800 55 0 -27.1000 109.000 30 60 978 4.00000 238 3 6 -27.1000 108.800 TC 55 22 170
1990056S11125 1990 12 SI WA VINCENT 1990-03-05 09:00:00 TS -28.2534 109.181 main 462 461 P_____P_____P_ SH171990 -28.2963 109.180 50 0 -28.1674 109.184 30 57 979 232 -28.2963 109.180 TC 50 26 162
1990056S11125 1990 12 SI WA VINCENT 1990-03-05 12:00:00 TS -29.5333 109.767 55 980 bom main 455 438 O_____O_____O_ jtwc_sh SH171990 -29.6000 109.900 45 0 -29.4000 109.500 30 55 980 4.00000 226 3 6 -29.6000 109.900 TC 45 29 155
1990056S11125 1990 12 SI WA VINCENT 1990-03-05 15:00:00 TS -30.8636 110.571 main 431 366 P_____P_____P_ SH171990 -30.8787 110.929 42 0 -30.8333 109.854 30 52 982 209 -30.8787 110.929 TC 42 31 150
1990056S11125 1990 12 SI WA VINCENT 1990-03-05 18:00:00 TS -32.1800 111.580 50 984 bom main 353 215 O_____O_____O_ jtwc_sh SH171990 -32.1000 112.300 40 0 -32.3000 110.500 51 50 984 3.50000 193 3 6 -32.1000 112.300 TC 40 31 144
1990056S11125 1990 12 SI WA VINCENT 1990-03-05 21:00:00 TS -33.4096 112.744 main 214 118 P_____P_____P_ SH171990 -33.1954 113.925 40 0 -33.6238 111.563 51 45 987 150 -33.1954 113.925 TC 40 31 141
1990056S11125 1990 12 SI WA VINCENT 1990-03-06 00:00:00 TS -34.6000 113.900 40 991 bom main 111 105 O_____O_____O_ jtwc_sh SH171990 -34.2000 115.700 40 0 -34.8000 113.000 51 40 991 107 3 6 -34.2000 115.700 TC 40 27 149
1990056S11125 1990 12 SI WA VINCENT 1990-03-06 03:00:00 NR -35.7308 114.470 main 154 154 ______P_______ SH171990 -1 -35.7308 114.470 51 37 994 99 TC 30 135
1990056S11125 1990 12 SI WA VINCENT 1990-03-06 06:00:00 NR -36.7000 116.500 35 997 bom main 178 178 ______O_______ -1 -36.7000 116.500 51 35 997 91 3 6 45 119
1990056S11125 1990 12 SI WA VINCENT 1990-03-06 09:00:00 NR -37.9447 119.436 main 335 335 ______P_______ -1 -37.9447 119.436 51 30 998 57 117
1990056S11125 1990 12 SI WA VINCENT 1990-03-06 12:00:00 NR -39.3000 123.000 25 1000 bom main 590 ______O_______ -1 -39.3000 123.000 50 25 1000 3 6 62 116

About IBTrACS Database

This database is a web-friendly format of International Best Track Archive for Climate Stewardship (IBTrACS), a global best track data archive curated by NOAA dating back to 1842.

Updated: 2021-10-25